createdAt,value
2023-06-07T00:01:38.687Z,99.90
2023-06-07T00:04:07.648Z,99.90
2023-06-07T00:06:35.381Z,99.90
2023-06-07T00:09:02.952Z,99.90
2023-06-07T00:11:30.554Z,99.90
2023-06-07T00:13:58.214Z,99.90
2023-06-07T00:16:25.850Z,99.90
2023-06-07T00:18:53.797Z,99.90
2023-06-07T00:21:21.689Z,99.90
2023-06-07T00:23:49.570Z,99.90
2023-06-07T00:26:17.232Z,99.90
2023-06-07T00:28:49.524Z,99.90
2023-06-07T00:31:17.233Z,99.90
2023-06-07T00:33:44.944Z,99.90
2023-06-07T00:36:12.564Z,99.90
2023-06-07T00:38:40.175Z,99.90
2023-06-07T00:41:07.753Z,99.90
2023-06-07T00:43:35.470Z,99.90
2023-06-07T00:46:05.213Z,99.90
2023-06-07T00:48:33.239Z,99.90
2023-06-07T00:51:01.396Z,99.90
2023-06-07T00:53:30.457Z,99.90
2023-06-07T00:55:59.111Z,99.90
2023-06-07T00:58:26.974Z,99.90
2023-06-07T01:00:55.681Z,99.90
2023-06-07T01:03:24.792Z,99.90
2023-06-07T01:05:53.153Z,99.90
2023-06-07T01:08:21.491Z,99.90
2023-06-07T01:10:50.115Z,99.90
2023-06-07T01:13:17.924Z,99.90
2023-06-07T01:15:46.176Z,99.90
2023-06-07T01:18:13.957Z,99.90
2023-06-07T01:20:49.857Z,99.90
2023-06-07T01:23:29.457Z,99.90
2023-06-07T01:25:59.721Z,99.90
2023-06-07T01:28:32.144Z,99.90
2023-06-07T01:31:01.939Z,99.90
2023-06-07T01:33:33.437Z,99.90
2023-06-07T01:36:04.095Z,99.90
2023-06-07T01:38:33.446Z,99.90
2023-06-07T01:41:03.001Z,99.90
2023-06-07T01:43:31.552Z,99.90
2023-06-07T01:46:00.225Z,99.90
2023-06-07T01:48:28.068Z,99.90
2023-06-07T01:50:55.788Z,99.90
2023-06-07T01:53:23.415Z,99.90
2023-06-07T01:55:59.796Z,99.90
2023-06-07T01:58:41.272Z,99.90
2023-06-07T02:01:34.887Z,99.90
2023-06-07T02:04:08.847Z,99.90
2023-06-07T02:06:41.318Z,99.90
2023-06-07T02:09:12.590Z,99.90
2023-06-07T02:11:42.183Z,99.90
2023-06-07T02:14:10.584Z,99.90
2023-06-07T02:16:38.381Z,99.90
2023-06-07T02:19:10.981Z,99.90
2023-06-07T02:21:51.367Z,99.90
2023-06-07T02:24:19.063Z,99.90
2023-06-07T02:26:46.662Z,99.90
2023-06-07T02:29:15.099Z,99.90
2023-06-07T02:31:42.849Z,99.90
2023-06-07T02:34:10.434Z,99.90
2023-06-07T02:36:41.438Z,99.90
2023-06-07T02:39:10.168Z,99.90
2023-06-07T02:41:37.823Z,99.90
2023-06-07T02:44:05.705Z,99.90
2023-06-07T02:46:33.375Z,99.90
2023-06-07T02:49:01.070Z,99.90
2023-06-07T02:51:30.854Z,99.90
2023-06-07T02:53:58.649Z,99.90
2023-06-07T02:56:30.486Z,99.90
2023-06-07T02:58:58.453Z,99.90
2023-06-07T03:01:32.378Z,99.90
2023-06-07T03:04:00.325Z,99.90
2023-06-07T03:06:30.666Z,99.90
2023-06-07T03:09:04.598Z,99.90
2023-06-07T03:11:35.295Z,99.90
2023-06-07T03:16:59.520Z,99.90
2023-06-07T03:19:27.452Z,99.90
2023-06-07T03:21:58.236Z,99.90
2023-06-07T03:24:25.873Z,99.90
2023-06-07T03:26:53.644Z,99.90
2023-06-07T03:29:21.423Z,99.90
2023-06-07T03:31:49.454Z,99.90
2023-06-07T03:34:19.713Z,99.90
2023-06-07T03:36:48.775Z,99.90
2023-06-07T03:39:18.251Z,99.90
2023-06-07T03:41:49.288Z,99.90
2023-06-07T03:44:22.268Z,99.90
2023-06-07T03:46:50.105Z,99.90
2023-06-07T03:49:17.783Z,99.90
2023-06-07T03:51:46.128Z,99.90
2023-06-07T03:54:14.870Z,99.90
2023-06-07T03:56:43.738Z,99.90
2023-06-07T03:59:14.198Z,99.90
2023-06-07T04:01:43.563Z,99.90
2023-06-07T04:04:11.766Z,99.90
2023-06-07T04:06:40.933Z,99.90
2023-06-07T04:09:09.575Z,99.90
2023-06-07T04:11:37.677Z,99.90
2023-06-07T04:14:06.054Z,99.90
2023-06-07T04:16:41.619Z,99.90
2023-06-07T04:19:09.747Z,99.90
2023-06-07T04:21:37.561Z,99.90
2023-06-07T04:24:07.033Z,99.90
2023-06-07T04:26:34.870Z,99.90
2023-06-07T04:29:02.708Z,99.90
2023-06-07T04:31:35.834Z,99.90
2023-06-07T04:34:07.195Z,99.90
2023-06-07T04:36:40.190Z,99.90
2023-06-07T04:39:14.575Z,99.90
2023-06-07T04:41:46.547Z,99.90
2023-06-07T04:44:28.881Z,99.90
2023-06-07T04:47:09.962Z,99.90
2023-06-07T04:49:40.460Z,99.90
2023-06-07T04:52:08.491Z,99.90
2023-06-07T04:54:38.174Z,99.90
2023-06-07T04:57:10.542Z,99.90
2023-06-07T04:59:44.153Z,99.90
2023-06-07T05:02:17.523Z,99.90
2023-06-07T05:04:46.046Z,99.90
2023-06-07T05:07:15.054Z,99.90
2023-06-07T05:09:47.276Z,99.90
2023-06-07T05:12:17.738Z,99.90
2023-06-07T05:14:46.451Z,99.90
2023-06-07T05:17:17.646Z,99.90
2023-06-07T05:19:45.252Z,99.90
2023-06-07T05:22:13.726Z,99.90
2023-06-07T05:24:41.413Z,99.90
2023-06-07T05:27:09.647Z,99.90
2023-06-07T05:29:37.318Z,99.90
2023-06-07T05:32:05.207Z,99.90
2023-06-07T05:34:32.916Z,99.90
2023-06-07T05:37:01.731Z,99.90
2023-06-07T05:39:30.009Z,99.90
2023-06-07T05:41:57.635Z,99.90
2023-06-07T05:44:25.528Z,99.90
2023-06-07T05:46:53.239Z,99.90
2023-06-07T05:49:21.388Z,99.90
2023-06-07T05:51:49.428Z,99.90
2023-06-07T05:54:17.561Z,99.90
2023-06-07T05:56:45.173Z,99.90
2023-06-07T05:59:12.989Z,99.90
2023-06-07T06:01:41.926Z,99.90
2023-06-07T06:04:09.843Z,99.90
2023-06-07T06:06:39.347Z,99.90
2023-06-07T06:09:07.013Z,99.90
2023-06-07T06:11:34.735Z,99.90
2023-06-07T06:14:02.691Z,99.90
2023-06-07T06:16:30.590Z,99.90
2023-06-07T06:18:58.359Z,99.90
2023-06-07T06:21:26.005Z,99.90
2023-06-07T06:23:54.453Z,99.90
2023-06-07T06:26:23.154Z,99.90
2023-06-07T06:28:50.735Z,99.90
2023-06-07T06:31:18.407Z,99.90
2023-06-07T06:33:46.468Z,99.90
2023-06-07T06:36:14.200Z,99.90
2023-06-07T06:38:42.021Z,99.90
2023-06-07T06:41:10.802Z,99.90
2023-06-07T06:43:38.618Z,99.90
2023-06-07T06:46:07.162Z,99.90
2023-06-07T06:48:39.311Z,99.90
2023-06-07T06:51:06.966Z,99.90
2023-06-07T06:53:34.509Z,99.90
2023-06-07T06:56:04.306Z,99.90
2023-06-07T06:58:35.817Z,99.90
2023-06-07T07:01:06.838Z,99.90
2023-06-07T07:03:34.545Z,99.90
2023-06-07T07:06:02.168Z,99.90
2023-06-07T07:08:29.846Z,99.90
2023-06-07T07:10:57.554Z,99.90
2023-06-07T07:13:25.172Z,99.90
2023-06-07T07:15:53.273Z,99.90
2023-06-07T07:18:21.290Z,99.90
2023-06-07T07:20:48.916Z,99.90
2023-06-07T07:23:18.192Z,99.90
2023-06-07T07:25:45.919Z,99.90
2023-06-07T07:28:13.597Z,99.90
2023-06-07T07:30:41.176Z,99.90
2023-06-07T07:33:08.817Z,99.90
2023-06-07T07:35:36.524Z,99.90
2023-06-07T07:38:06.408Z,99.90
2023-06-07T07:40:34.108Z,99.90
2023-06-07T07:43:01.700Z,99.90
2023-06-07T07:45:29.310Z,99.90
2023-06-07T07:47:57.057Z,99.90
2023-06-07T07:50:24.739Z,99.90
2023-06-07T07:52:54.888Z,99.90
2023-06-07T07:55:23.942Z,99.90
2023-06-07T07:57:51.647Z,99.90
2023-06-07T08:00:19.464Z,99.90
2023-06-07T08:02:47.385Z,99.90
2023-06-07T08:05:15.088Z,99.90
2023-06-07T08:07:42.823Z,99.90
2023-06-07T08:10:12.456Z,99.90
2023-06-07T08:12:41.078Z,99.90
2023-06-07T08:15:10.191Z,99.90
2023-06-07T08:17:37.792Z,99.90
2023-06-07T08:20:08.603Z,99.90
2023-06-07T08:22:39.290Z,99.90
2023-06-07T08:25:08.356Z,99.90
2023-06-07T08:27:36.924Z,99.90
2023-06-07T08:30:05.606Z,99.90
2023-06-07T08:32:34.038Z,99.90
2023-06-07T08:35:01.953Z,99.90
2023-06-07T08:37:29.642Z,99.90
2023-06-07T08:39:57.275Z,99.90
2023-06-07T08:42:26.314Z,99.90
2023-06-07T08:44:54.833Z,99.90
2023-06-07T08:47:24.797Z,99.90
2023-06-07T08:49:57.155Z,99.90
2023-06-07T08:52:25.672Z,99.90
2023-06-07T08:55:00.444Z,99.90
2023-06-07T08:57:30.917Z,99.90
2023-06-07T09:00:08.538Z,99.90
2023-06-07T09:02:37.886Z,99.90
2023-06-07T09:05:07.455Z,98.60
2023-06-07T09:07:36.565Z,98.30
2023-06-07T09:10:07.072Z,94.20
2023-06-07T09:12:36.554Z,94.50
2023-06-07T09:15:06.194Z,94.80
2023-06-07T09:17:53.007Z,95.10
2023-06-07T09:20:22.862Z,94.60
2023-06-07T09:23:02.026Z,93.70
2023-06-07T09:25:30.162Z,92.70
2023-06-07T09:27:58.710Z,93.10
2023-06-07T09:30:29.405Z,94.30
2023-06-07T09:32:57.064Z,91.90
2023-06-07T09:35:26.570Z,90.80
2023-06-07T09:37:59.106Z,90.30
2023-06-07T09:40:26.900Z,93.30
2023-06-07T09:43:01.222Z,91.90
2023-06-07T09:45:31.730Z,91.80
2023-06-07T09:48:07.277Z,92.50
2023-06-07T09:50:35.158Z,91.10
2023-06-07T09:53:02.966Z,91.90
2023-06-07T09:55:31.504Z,92.00
2023-06-07T09:57:59.479Z,90.90
2023-06-07T10:00:28.912Z,89.60
2023-06-07T10:03:07.316Z,91.30
2023-06-07T10:05:36.117Z,90.30
2023-06-07T10:08:04.641Z,90.70
2023-06-07T10:10:35.929Z,87.20
2023-06-07T10:13:07.232Z,88.30
2023-06-07T10:15:36.851Z,87.60
2023-06-07T10:18:27.601Z,90.60
2023-06-07T10:21:10.748Z,85.50
2023-06-07T10:23:55.250Z,88.80
2023-06-07T10:26:35.025Z,84.50
2023-06-07T10:29:21.313Z,82.20
2023-06-07T10:32:01.771Z,86.80
2023-06-07T10:34:31.353Z,81.80
2023-06-07T10:37:03.015Z,90.50
2023-06-07T10:39:31.052Z,90.40
2023-06-07T10:41:59.418Z,86.20
2023-06-07T10:44:27.352Z,85.90
2023-06-07T10:47:23.449Z,85.40
2023-06-07T10:49:55.363Z,83.50
2023-06-07T10:52:32.464Z,83.10
2023-06-07T10:55:00.750Z,82.70
2023-06-07T10:57:37.661Z,80.80
2023-06-07T11:00:26.370Z,81.20
2023-06-07T11:03:06.362Z,73.00
2023-06-07T11:06:09.986Z,75.60
2023-06-07T11:08:39.300Z,79.10
2023-06-07T11:11:41.262Z,80.60
2023-06-07T11:14:11.080Z,78.70
2023-06-07T11:16:42.547Z,78.30
2023-06-07T11:19:14.160Z,77.00
2023-06-07T11:22:08.256Z,76.90
2023-06-07T11:24:49.733Z,74.60
2023-06-07T11:27:23.416Z,77.10
2023-06-07T11:29:58.158Z,81.50
2023-06-07T11:32:28.696Z,81.10
2023-06-07T11:34:58.215Z,80.70
2023-06-07T11:37:28.982Z,77.10
2023-06-07T11:40:00.745Z,73.60
2023-06-07T11:42:28.511Z,79.50
2023-06-07T11:44:56.083Z,70.30
2023-06-07T11:47:23.954Z,77.00
2023-06-07T11:49:51.738Z,79.00
2023-06-07T11:52:21.156Z,74.30
2023-06-07T11:54:49.740Z,77.10
2023-06-07T11:57:17.397Z,73.90
2023-06-07T11:59:45.957Z,75.40
2023-06-07T12:02:15.964Z,74.60
2023-06-07T12:04:44.612Z,69.70
2023-06-07T12:07:30.515Z,76.40
2023-06-07T12:09:58.179Z,71.00
2023-06-07T12:12:25.847Z,71.80
2023-06-07T12:15:04.107Z,72.20
2023-06-07T12:17:36.725Z,68.70
2023-06-07T12:20:09.326Z,70.80
2023-06-07T12:22:37.067Z,71.40
2023-06-07T12:25:19.439Z,69.90
2023-06-07T12:27:47.940Z,72.70
2023-06-07T12:30:15.681Z,76.60
2023-06-07T12:32:44.617Z,79.00
2023-06-07T12:35:12.474Z,72.20
2023-06-07T12:37:40.146Z,78.70
2023-06-07T12:40:09.187Z,78.70
2023-06-07T12:42:36.862Z,77.40
2023-06-07T12:45:06.871Z,75.60
2023-06-07T12:47:34.880Z,81.30
2023-06-07T12:50:02.570Z,80.10
2023-06-07T12:52:30.201Z,82.20
2023-06-07T12:54:57.814Z,83.40
2023-06-07T12:57:25.398Z,82.10
2023-06-07T12:59:52.961Z,83.60
2023-06-07T13:02:20.861Z,84.60
2023-06-07T13:04:48.472Z,86.30
2023-06-07T13:07:16.062Z,87.00
2023-06-07T13:09:43.675Z,88.00
2023-06-07T13:12:11.679Z,84.80
2023-06-07T13:14:39.307Z,86.20
2023-06-07T13:17:07.782Z,83.10
2023-06-07T13:19:35.561Z,87.30
2023-06-07T13:22:05.682Z,86.80
2023-06-07T13:24:33.915Z,84.40
2023-06-07T13:27:02.713Z,85.90
2023-06-07T13:29:30.423Z,87.90
2023-06-07T13:31:58.063Z,89.10
2023-06-07T13:34:25.695Z,86.30
2023-06-07T13:36:54.819Z,88.30
2023-06-07T13:39:22.473Z,88.20
2023-06-07T13:41:50.153Z,85.50
2023-06-07T13:44:19.029Z,85.90
2023-06-07T13:46:47.330Z,82.40
2023-06-07T13:49:15.805Z,85.10
2023-06-07T13:51:43.549Z,82.50
2023-06-07T13:54:11.191Z,85.10
2023-06-07T13:56:39.037Z,87.70
2023-06-07T13:59:06.942Z,87.70
2023-06-07T14:01:35.305Z,86.60
2023-06-07T14:04:03.143Z,86.70
2023-06-07T14:06:30.866Z,87.50
2023-06-07T14:08:58.485Z,87.50
2023-06-07T14:11:27.045Z,88.20
2023-06-07T14:13:57.775Z,90.00
2023-06-07T14:16:28.169Z,87.80
2023-06-07T14:18:56.846Z,90.80
2023-06-07T14:21:25.409Z,88.70
2023-06-07T14:23:53.037Z,89.10
2023-06-07T14:26:21.232Z,88.50
2023-06-07T14:28:50.370Z,86.30
2023-06-07T14:31:20.328Z,88.00
2023-06-07T14:33:48.232Z,89.50
2023-06-07T14:36:17.702Z,90.30
2023-06-07T14:38:46.015Z,88.20
2023-06-07T14:41:13.662Z,88.10
2023-06-07T14:43:41.371Z,86.70
2023-06-07T14:46:09.116Z,90.20
2023-06-07T14:48:36.755Z,90.90
2023-06-07T14:51:07.276Z,91.00
2023-06-07T14:53:34.865Z,91.10
2023-06-07T14:56:02.440Z,91.90
2023-06-07T14:58:30.370Z,92.50
2023-06-07T15:00:57.982Z,92.40
2023-06-07T15:03:25.701Z,92.80
2023-06-07T15:05:53.716Z,92.30
2023-06-07T15:08:21.773Z,92.70
2023-06-07T15:10:49.468Z,92.00
2023-06-07T15:13:17.049Z,93.20
2023-06-07T15:15:45.050Z,93.90
2023-06-07T15:18:17.636Z,94.10
2023-06-07T15:20:46.366Z,93.50
2023-06-07T15:23:13.949Z,94.00
2023-06-07T15:25:41.974Z,93.00
2023-06-07T15:28:09.908Z,93.00
2023-06-07T15:30:37.542Z,93.20
2023-06-07T15:33:07.348Z,92.60
2023-06-07T15:35:35.167Z,93.20
2023-06-07T15:38:03.234Z,93.90
2023-06-07T15:40:31.188Z,93.90
2023-06-07T15:42:59.057Z,94.00
2023-06-07T15:45:26.741Z,94.10
2023-06-07T15:48:01.712Z,94.30
2023-06-07T15:50:30.444Z,94.80
2023-06-07T15:52:59.072Z,95.20
2023-06-07T15:55:28.924Z,95.30
2023-06-07T15:57:56.836Z,95.90
2023-06-07T16:00:36.725Z,95.70
2023-06-07T16:03:08.625Z,95.80
2023-06-07T16:05:36.740Z,96.80
2023-06-07T16:08:10.244Z,97.80
2023-06-07T16:10:45.419Z,99.30
2023-06-07T16:13:13.027Z,98.80
2023-06-07T16:15:40.922Z,98.10
2023-06-07T16:18:08.739Z,99.20
2023-06-07T16:20:36.458Z,99.50
2023-06-07T16:23:09.346Z,99.90
2023-06-07T16:25:37.844Z,99.20
2023-06-07T16:28:08.373Z,99.90
2023-06-07T16:30:36.738Z,99.90
2023-06-07T16:33:05.836Z,99.90
2023-06-07T16:35:33.932Z,99.90
2023-06-07T16:38:01.544Z,99.90
2023-06-07T16:40:29.928Z,99.90
2023-06-07T16:42:57.552Z,99.90
2023-06-07T16:45:25.170Z,99.90
2023-06-07T16:47:52.892Z,99.90
2023-06-07T16:50:20.529Z,99.90
2023-06-07T16:52:48.180Z,99.90
2023-06-07T16:55:15.897Z,99.90
2023-06-07T16:57:43.469Z,99.90
2023-06-07T17:00:11.629Z,99.90
2023-06-07T17:02:39.483Z,99.90
2023-06-07T17:05:07.700Z,99.90
2023-06-07T17:07:35.455Z,99.90
2023-06-07T17:10:03.582Z,99.90
2023-06-07T17:12:31.656Z,99.90
2023-06-07T17:14:59.300Z,99.90
2023-06-07T17:17:27.109Z,99.90
2023-06-07T17:19:54.866Z,99.90
2023-06-07T17:22:22.483Z,99.90
2023-06-07T17:24:50.162Z,99.90
2023-06-07T17:27:17.806Z,99.90
2023-06-07T17:29:45.641Z,99.90
2023-06-07T17:32:13.486Z,99.90
2023-06-07T17:34:41.275Z,99.90
2023-06-07T17:37:10.233Z,99.90
2023-06-07T17:39:38.412Z,99.90
2023-06-07T17:42:07.452Z,99.90
2023-06-07T17:44:35.005Z,99.90
2023-06-07T17:47:04.977Z,99.90
2023-06-07T17:49:32.558Z,99.90
2023-06-07T17:52:06.347Z,99.90
2023-06-07T17:54:47.650Z,99.90
2023-06-07T17:57:18.418Z,99.90
2023-06-07T17:59:46.130Z,99.90
2023-06-07T18:02:13.683Z,99.90
2023-06-07T18:04:41.300Z,99.90
2023-06-07T18:07:09.463Z,99.90
2023-06-07T18:09:38.525Z,99.90
2023-06-07T18:12:12.053Z,99.90
2023-06-07T18:14:41.595Z,99.90
2023-06-07T18:17:10.071Z,99.90
2023-06-07T18:19:37.973Z,99.90
2023-06-07T18:22:06.178Z,99.90
2023-06-07T18:24:34.058Z,99.90
2023-06-07T18:27:02.090Z,99.90
2023-06-07T18:29:29.942Z,99.90
2023-06-07T18:31:57.742Z,99.90
2023-06-07T18:34:25.618Z,99.90
2023-06-07T18:36:53.625Z,99.90
2023-06-07T18:39:23.967Z,99.90
2023-06-07T18:41:52.201Z,99.90
2023-06-07T18:44:19.856Z,99.90
2023-06-07T18:46:47.733Z,99.90
2023-06-07T18:49:15.441Z,99.90
2023-06-07T18:51:43.120Z,99.90
2023-06-07T18:54:10.832Z,99.90
2023-06-07T18:56:38.534Z,99.90
2023-06-07T18:59:06.459Z,99.90
2023-06-07T19:01:50.047Z,99.90
2023-06-07T19:04:19.114Z,99.90
2023-06-07T19:06:50.460Z,99.90
2023-06-07T19:09:19.495Z,99.90
2023-06-07T19:11:47.134Z,99.90
2023-06-07T19:14:16.237Z,99.90
2023-06-07T19:16:43.994Z,99.90
2023-06-07T19:19:12.085Z,99.90
2023-06-07T19:21:40.159Z,99.90
2023-06-07T19:24:08.169Z,99.90
2023-06-07T19:26:35.952Z,99.90
2023-06-07T19:29:04.131Z,99.90
2023-06-07T19:31:33.778Z,99.90
2023-06-07T19:34:01.871Z,99.90
2023-06-07T19:36:29.519Z,99.90
2023-06-07T19:38:57.127Z,99.90
2023-06-07T19:41:24.774Z,99.90
2023-06-07T19:43:52.416Z,99.90
2023-06-07T19:46:20.376Z,99.90
2023-06-07T19:48:48.124Z,99.90
2023-06-07T19:51:16.031Z,99.90
2023-06-07T19:53:43.731Z,99.90
2023-06-07T19:56:11.334Z,99.90
2023-06-07T19:58:39.075Z,99.90
2023-06-07T20:01:06.714Z,99.90
2023-06-07T20:03:34.293Z,99.90
2023-06-07T20:06:03.064Z,99.90
2023-06-07T20:08:30.718Z,99.90
2023-06-07T20:10:58.341Z,99.90
2023-06-07T20:13:26.037Z,99.90
2023-06-07T20:15:53.809Z,99.90
2023-06-07T20:18:21.485Z,99.90
2023-06-07T20:20:49.133Z,99.90
2023-06-07T20:23:16.908Z,99.90
2023-06-07T20:25:44.641Z,99.90
2023-06-07T20:28:12.563Z,99.90
2023-06-07T20:30:40.393Z,99.90
2023-06-07T20:33:08.573Z,99.90
2023-06-07T20:35:36.256Z,99.90
2023-06-07T20:38:03.837Z,99.90
2023-06-07T20:40:31.493Z,99.90
2023-06-07T20:42:59.285Z,99.90
2023-06-07T20:45:27.041Z,99.90
2023-06-07T20:47:54.881Z,99.90
2023-06-07T20:50:22.538Z,99.90
2023-06-07T20:52:50.268Z,99.90
2023-06-07T20:55:17.870Z,99.90
2023-06-07T20:57:45.584Z,99.90
2023-06-07T21:00:14.133Z,99.90
2023-06-07T21:02:42.281Z,99.90
2023-06-07T21:05:10.020Z,99.90
2023-06-07T21:07:37.618Z,99.90
2023-06-07T21:10:05.822Z,99.90
2023-06-07T21:12:33.717Z,99.90
2023-06-07T21:15:01.412Z,99.90
2023-06-07T21:17:29.098Z,99.90
2023-06-07T21:19:57.082Z,99.90
2023-06-07T21:22:24.741Z,99.90
2023-06-07T21:24:53.138Z,99.90
2023-06-07T21:27:20.892Z,99.90
2023-06-07T21:29:50.182Z,99.90
2023-06-07T21:32:17.853Z,99.90
2023-06-07T21:34:45.515Z,99.90
2023-06-07T21:37:13.835Z,99.90
2023-06-07T21:39:41.906Z,99.90
2023-06-07T21:42:09.784Z,99.90
2023-06-07T21:44:37.486Z,99.90
2023-06-07T21:47:05.746Z,99.90
2023-06-07T21:49:33.414Z,99.90
2023-06-07T21:52:01.124Z,99.90
2023-06-07T21:54:28.851Z,99.90
2023-06-07T21:56:56.951Z,99.90
2023-06-07T21:59:24.612Z,99.90
2023-06-07T22:01:52.333Z,99.90
2023-06-07T22:04:20.069Z,99.90
2023-06-07T22:06:47.755Z,99.90
2023-06-07T22:09:15.395Z,99.90
2023-06-07T22:11:46.118Z,99.90
2023-06-07T22:14:17.686Z,99.90
2023-06-07T22:16:46.332Z,99.90
2023-06-07T22:19:15.986Z,99.90
2023-06-07T22:21:43.756Z,99.90
2023-06-07T22:24:11.477Z,99.90
2023-06-07T22:26:39.763Z,99.90
2023-06-07T22:29:07.603Z,99.90
2023-06-07T22:31:37.764Z,99.90
2023-06-07T22:34:05.907Z,99.90
2023-06-07T22:36:39.065Z,99.90
2023-06-07T22:39:11.347Z,99.90
2023-06-07T22:41:39.479Z,99.90
2023-06-07T22:44:08.235Z,99.90
2023-06-07T22:46:38.934Z,99.90
2023-06-07T22:49:06.931Z,99.90
2023-06-07T22:51:34.891Z,99.90
2023-06-07T22:54:06.292Z,99.90
2023-06-07T22:56:34.084Z,99.90
2023-06-07T22:59:01.696Z,99.90
2023-06-07T23:01:32.748Z,99.90
2023-06-07T23:04:01.971Z,99.90
2023-06-07T23:06:36.239Z,99.90
2023-06-07T23:09:04.799Z,99.90
2023-06-07T23:11:34.879Z,99.90
2023-06-07T23:14:03.787Z,99.90
2023-06-07T23:16:31.540Z,99.90
2023-06-07T23:19:03.289Z,99.90
2023-06-07T23:21:32.274Z,99.90
2023-06-07T23:24:00.039Z,99.90
2023-06-07T23:26:27.741Z,99.90
2023-06-07T23:28:55.547Z,99.90
2023-06-07T23:31:23.341Z,99.90
2023-06-07T23:33:51.054Z,99.90
2023-06-07T23:36:21.393Z,99.90
2023-06-07T23:38:49.015Z,99.90
2023-06-07T23:41:16.718Z,99.90
2023-06-07T23:43:44.342Z,99.90
2023-06-07T23:46:13.065Z,99.90
2023-06-07T23:48:41.088Z,99.90
2023-06-07T23:51:08.694Z,99.90
2023-06-07T23:53:36.335Z,99.90
2023-06-07T23:56:04.115Z,99.90
2023-06-07T23:58:31.775Z,99.90
